createdAt,value
2022-12-26T00:00:02.223Z,27.10
2022-12-26T00:01:02.220Z,27.15
2022-12-26T00:02:02.152Z,39.33
2022-12-26T00:03:02.272Z,32.91
2022-12-26T00:04:02.170Z,39.11
2022-12-26T00:05:02.183Z,36.99
2022-12-26T05:48:37.151Z,33.57
2022-12-26T11:19:28.052Z,38.01
2022-12-26T11:20:28.020Z,34.87
2022-12-26T11:21:28.020Z,33.66
2022-12-26T11:22:27.991Z,39.86
2022-12-26T11:23:27.980Z,36.03
2022-12-26T11:24:27.959Z,34.30
2022-12-26T11:25:27.926Z,34.75
2022-12-26T11:26:27.916Z,34.79
2022-12-26T11:27:27.886Z,35.97
2022-12-26T11:28:27.882Z,34.96
2022-12-26T11:29:27.840Z,33.21
2022-12-26T11:30:27.820Z,33.17
2022-12-26T11:31:27.848Z,36.01
2022-12-26T11:32:27.797Z,36.34
2022-12-26T11:33:27.755Z,34.72
2022-12-26T11:34:27.746Z,36.47
2022-12-26T11:35:27.699Z,35.24
2022-12-26T11:36:27.667Z,34.10
2022-12-26T11:37:27.639Z,36.18
2022-12-26T11:38:27.633Z,39.35
2022-12-26T11:39:27.606Z,36.51
2022-12-26T11:40:27.580Z,35.74
2022-12-26T11:41:27.548Z,36.41
2022-12-26T11:42:27.558Z,37.20
2022-12-26T11:43:27.500Z,38.63
2022-12-26T11:44:27.476Z,40.27
2022-12-26T11:45:27.448Z,38.65
2022-12-26T11:46:27.466Z,38.46
2022-12-26T11:47:27.401Z,38.68
2022-12-26T11:48:27.379Z,38.67
2022-12-26T11:49:27.347Z,34.34
2022-12-26T11:50:27.349Z,38.08
2022-12-26T11:51:27.299Z,40.00
2022-12-26T11:52:27.273Z,36.29
2022-12-26T11:53:27.270Z,38.05
2022-12-26T11:54:27.239Z,37.99
2022-12-26T11:55:27.214Z,38.35
2022-12-26T11:56:27.188Z,38.33
2022-12-26T11:57:27.166Z,36.60
2022-12-26T11:58:27.142Z,37.42
2022-12-26T16:33:20.243Z,43.56
2022-12-26T16:34:20.197Z,42.54
2022-12-26T16:35:20.160Z,37.10
2022-12-26T16:36:20.127Z,36.09
2022-12-26T16:37:20.139Z,34.33
2022-12-26T16:38:20.095Z,43.27
2022-12-26T16:39:20.043Z,43.62
2022-12-26T16:40:20.023Z,38.97
2022-12-26T16:41:19.983Z,40.20
2022-12-26T16:42:19.966Z,34.53
2022-12-26T16:43:19.943Z,41.63
2022-12-26T16:44:22.862Z,34.02
2022-12-26T16:45:19.881Z,34.74
2022-12-26T16:46:19.895Z,35.84
2022-12-26T16:47:19.935Z,37.16
2022-12-26T16:48:19.806Z,39.28
2022-12-26T16:49:19.772Z,41.10
2022-12-26T16:50:19.751Z,41.52
2022-12-26T16:51:19.726Z,40.21
2022-12-26T16:52:19.699Z,38.80
2022-12-26T16:53:19.685Z,39.53
2022-12-26T16:54:19.666Z,36.93
2022-12-26T16:55:19.634Z,37.61
2022-12-26T16:56:19.609Z,40.75
2022-12-26T16:57:19.599Z,40.55
2022-12-26T16:58:19.561Z,40.66
2022-12-26T16:59:19.553Z,41.28
2022-12-26T17:00:19.534Z,36.65
2022-12-26T17:01:19.643Z,33.77
2022-12-26T17:02:19.555Z,33.27
2022-12-26T17:03:19.538Z,41.48
2022-12-26T17:04:19.426Z,41.18
2022-12-26T17:05:19.406Z,34.77
2022-12-26T17:06:19.414Z,36.96
2022-12-26T17:07:19.357Z,40.61
2022-12-26T17:08:19.328Z,35.56
2022-12-26T17:09:19.306Z,44.48
2022-12-26T17:10:19.319Z,45.52
2022-12-26T17:11:19.266Z,40.16
2022-12-26T17:12:19.248Z,46.76
2022-12-26T17:13:19.225Z,35.86
2022-12-26T17:14:19.209Z,37.80
2022-12-26T17:15:19.180Z,44.71
2022-12-26T17:16:19.233Z,34.07
2022-12-26T17:17:19.133Z,50.16
2022-12-26T17:18:19.103Z,39.95
2022-12-26T17:19:19.093Z,42.79
2022-12-26T17:20:19.056Z,38.17
2022-12-26T17:21:19.047Z,36.74
2022-12-26T17:22:19.002Z,45.63
2022-12-26T17:23:18.977Z,46.25
2022-12-26T17:24:18.959Z,43.76
2022-12-26T17:25:18.928Z,41.41
2022-12-26T17:26:18.932Z,52.26
2022-12-26T17:27:18.885Z,49.09
2022-12-26T17:28:18.877Z,47.21
2022-12-26T17:29:18.846Z,52.49
2022-12-26T17:30:18.819Z,43.56
2022-12-26T17:31:18.838Z,40.32
2022-12-26T17:32:18.771Z,47.23
2022-12-26T17:33:18.757Z,46.28
2022-12-26T17:34:18.713Z,46.04
2022-12-26T17:35:18.688Z,44.93
2022-12-26T17:37:00.582Z,39.85
2022-12-26T17:37:19.758Z,40.14
2022-12-26T17:38:18.616Z,40.37
2022-12-26T17:39:18.596Z,41.13
2022-12-26T17:40:18.566Z,43.85
2022-12-26T17:41:18.544Z,40.73
2022-12-26T17:42:18.541Z,49.03
2022-12-26T17:43:18.485Z,53.70
2022-12-26T17:44:18.468Z,40.23
2022-12-26T17:45:18.457Z,50.82
2022-12-26T17:46:18.473Z,49.89
2022-12-26T17:47:18.391Z,51.41
2022-12-26T17:48:18.373Z,45.02
2022-12-26T17:49:18.349Z,51.09
2022-12-26T17:50:18.316Z,41.24
2022-12-26T17:51:18.290Z,47.25
2022-12-26T17:52:18.271Z,49.91
2022-12-26T17:53:18.242Z,43.26
2022-12-26T17:54:18.217Z,50.03
2022-12-26T17:55:18.197Z,49.86
2022-12-26T17:56:18.171Z,50.55
2022-12-26T17:57:18.145Z,51.81
2022-12-26T17:58:18.139Z,51.41
2022-12-26T17:59:18.097Z,44.08
2022-12-26T18:00:18.060Z,49.13
2022-12-26T18:01:21.321Z,48.68
2022-12-26T18:02:18.171Z,48.70
2022-12-26T18:03:17.989Z,45.74
2022-12-26T18:04:17.963Z,49.74
2022-12-26T18:05:17.951Z,47.86
2022-12-26T18:06:17.907Z,44.76
2022-12-26T18:07:17.883Z,50.53
2022-12-26T18:08:17.861Z,53.96
2022-12-26T18:09:17.844Z,56.89
2022-12-26T18:10:17.820Z,49.41
2022-12-26T18:11:17.795Z,50.28
2022-12-26T18:12:17.779Z,36.43
2022-12-26T18:13:17.746Z,56.00
2022-12-26T18:14:17.910Z,51.90
2022-12-26T18:15:17.697Z,57.19
2022-12-26T18:16:17.768Z,52.48
2022-12-26T18:17:17.659Z,43.87
2022-12-26T18:18:17.632Z,60.46
2022-12-26T18:19:17.612Z,48.42
2022-12-26T18:20:17.584Z,58.82
2022-12-26T18:21:17.561Z,43.96
2022-12-26T18:22:17.548Z,43.56
2022-12-26T18:23:17.526Z,51.85
2022-12-26T18:24:17.499Z,57.36
2022-12-26T18:25:17.480Z,43.87
2022-12-26T18:26:17.459Z,52.48
2022-12-26T18:27:17.433Z,57.79
2022-12-26T18:28:17.422Z,41.31
2022-12-26T18:29:17.390Z,45.87
2022-12-26T18:30:17.431Z,38.54
2022-12-26T18:31:17.389Z,49.51
2022-12-26T18:32:17.319Z,46.61
2022-12-26T18:33:17.309Z,49.46
2022-12-26T18:34:17.270Z,54.33
2022-12-26T18:35:17.272Z,56.88
2022-12-26T18:36:17.238Z,54.40
2022-12-26T18:37:17.208Z,53.27
2022-12-26T18:38:17.196Z,56.60
2022-12-26T18:39:17.168Z,48.46
2022-12-26T18:40:17.148Z,53.43
2022-12-26T20:42:14.072Z,53.08
2022-12-26T20:43:14.040Z,48.71
2022-12-26T20:44:14.071Z,46.01
2022-12-26T20:45:13.993Z,39.64
2022-12-26T20:46:14.045Z,34.14
2022-12-26T20:47:13.959Z,32.92
2022-12-26T20:48:13.929Z,38.32
2022-12-26T20:49:13.906Z,38.86
2022-12-26T20:50:13.893Z,43.50
2022-12-26T20:51:13.862Z,51.72
2022-12-26T20:52:13.920Z,57.63
2022-12-26T20:53:13.826Z,53.03
2022-12-26T20:54:13.844Z,45.14
2022-12-26T20:55:13.790Z,57.36
2022-12-26T20:56:13.767Z,59.85
2022-12-26T20:57:13.746Z,55.83
2022-12-26T20:58:13.717Z,54.05
2022-12-26T20:59:13.708Z,57.65
2022-12-26T21:00:13.676Z,56.71
2022-12-26T21:01:13.856Z,49.06
2022-12-26T21:02:13.807Z,51.88
2022-12-26T21:03:13.640Z,50.08
2022-12-26T21:04:13.571Z,49.79
2022-12-26T21:05:13.555Z,42.68
2022-12-26T21:06:13.518Z,51.39
2022-12-26T21:07:13.500Z,53.11
2022-12-26T21:08:13.467Z,44.12
2022-12-26T21:09:13.436Z,45.74
2022-12-26T21:10:13.462Z,52.13
2022-12-26T21:11:13.392Z,50.93
2022-12-26T21:12:13.391Z,51.81
2022-12-26T21:13:13.349Z,47.49
2022-12-26T21:14:13.335Z,44.95
2022-12-26T21:15:13.294Z,42.88
2022-12-26T21:16:13.275Z,45.40
2022-12-26T21:17:13.276Z,38.68
2022-12-26T21:18:13.213Z,45.59
2022-12-26T21:19:15.633Z,52.23
2022-12-26T21:20:13.156Z,52.29
2022-12-26T21:21:13.131Z,50.33
2022-12-26T21:22:13.115Z,51.68
2022-12-26T21:23:13.117Z,45.47
2022-12-26T21:24:13.063Z,46.15
2022-12-26T21:25:13.040Z,43.43
2022-12-26T21:26:13.700Z,49.16
2022-12-26T21:27:13.000Z,47.58
2022-12-26T21:28:12.972Z,46.88
2022-12-26T21:29:12.955Z,45.06
2022-12-26T21:30:12.932Z,44.85
2022-12-26T21:31:12.938Z,43.23
2022-12-26T21:32:12.916Z,36.92
2022-12-26T21:33:12.873Z,36.81
2022-12-26T21:34:12.839Z,49.22
2022-12-26T21:35:12.816Z,47.28
2022-12-26T21:36:12.790Z,48.56
2022-12-26T21:37:12.771Z,49.41
2022-12-26T21:38:12.785Z,53.92
2022-12-26T21:39:12.705Z,48.10
2022-12-26T21:40:12.683Z,48.66
2022-12-26T21:41:12.671Z,46.57
2022-12-26T21:42:12.651Z,44.11
2022-12-26T21:43:12.600Z,48.73
2022-12-26T21:44:12.567Z,49.73
2022-12-26T21:45:12.546Z,45.41
2022-12-26T21:46:12.589Z,47.75
2022-12-26T21:47:12.500Z,50.35
2022-12-26T21:48:12.517Z,45.01
2022-12-26T21:49:12.435Z,40.34
2022-12-26T21:50:12.404Z,44.52
2022-12-26T21:51:12.387Z,48.74
2022-12-26T21:52:12.354Z,43.14
2022-12-26T21:53:12.333Z,46.48
2022-12-26T21:54:12.340Z,47.20
2022-12-26T21:55:12.288Z,44.46
2022-12-26T21:56:12.258Z,49.43
2022-12-26T21:57:12.228Z,48.12
2022-12-26T21:58:12.233Z,44.63
2022-12-26T21:59:12.173Z,45.26
2022-12-26T22:00:12.160Z,47.77
2022-12-26T22:01:12.275Z,49.37
2022-12-26T22:02:12.245Z,50.53
2022-12-26T22:03:12.141Z,48.53
2022-12-26T22:04:12.032Z,49.85
2022-12-26T22:05:12.011Z,47.47
2022-12-26T22:06:11.989Z,44.46
2022-12-26T22:07:11.954Z,43.95
2022-12-26T22:08:11.938Z,40.93
2022-12-26T22:09:11.910Z,42.48
2022-12-26T22:10:11.882Z,46.44
2022-12-26T22:11:11.863Z,58.43
2022-12-26T22:12:11.834Z,54.35
2022-12-26T22:13:11.805Z,46.13
2022-12-26T22:14:11.809Z,49.54
2022-12-26T22:15:11.755Z,46.21
2022-12-26T22:16:11.924Z,42.31
2022-12-26T22:17:11.702Z,42.06
2022-12-26T22:18:11.681Z,47.18
2022-12-26T22:19:11.659Z,46.97
2022-12-26T22:20:11.627Z,47.32
2022-12-26T22:21:11.603Z,53.94
2022-12-26T22:22:11.684Z,50.80
2022-12-26T22:23:11.549Z,44.46
2022-12-26T22:24:11.528Z,48.54
2022-12-26T22:25:11.490Z,50.01
2022-12-26T22:26:11.467Z,46.67
2022-12-26T22:27:11.439Z,47.50
2022-12-26T22:28:11.419Z,47.88
2022-12-26T22:29:11.391Z,46.00
2022-12-26T22:30:11.390Z,45.40
2022-12-26T22:31:11.383Z,43.28
2022-12-26T22:32:11.310Z,43.95
2022-12-26T22:33:11.305Z,48.27
2022-12-26T22:34:11.253Z,47.48
2022-12-26T22:35:18.202Z,46.88
2022-12-26T22:36:11.206Z,47.16
2022-12-26T22:37:11.184Z,47.20
2022-12-26T22:38:11.151Z,45.86
2022-12-26T22:39:11.116Z,50.92
2022-12-26T22:40:11.108Z,50.77
2022-12-26T22:41:11.063Z,51.35
2022-12-26T22:42:11.041Z,52.51
2022-12-26T22:43:11.021Z,52.34
2022-12-26T22:44:10.989Z,43.19
2022-12-26T22:45:10.969Z,50.76
2022-12-26T22:46:11.018Z,50.79
2022-12-26T22:47:10.908Z,44.51
2022-12-26T22:48:10.874Z,49.15
2022-12-26T22:49:10.853Z,46.81
2022-12-26T22:50:10.816Z,48.49
2022-12-26T22:51:10.795Z,51.49
2022-12-26T22:52:15.657Z,53.33
2022-12-26T22:53:10.745Z,53.55
2022-12-26T22:54:10.729Z,53.16
2022-12-26T22:55:10.686Z,52.25
2022-12-26T22:56:10.661Z,47.52
2022-12-26T22:57:10.632Z,48.42
2022-12-26T22:58:10.611Z,46.76
2022-12-26T22:59:10.581Z,45.00
2022-12-26T23:00:11.208Z,49.20
2022-12-26T23:01:10.598Z,53.06
2022-12-26T23:02:10.647Z,46.35
2022-12-26T23:03:10.541Z,44.58
2022-12-26T23:04:10.459Z,46.82
2022-12-26T23:05:10.452Z,45.70
2022-12-26T23:06:10.418Z,50.41
2022-12-26T23:07:10.383Z,41.75
2022-12-26T23:08:10.376Z,46.49
2022-12-26T23:09:10.331Z,50.62
2022-12-26T23:10:10.309Z,52.82
2022-12-26T23:11:10.298Z,41.83
2022-12-26T23:12:10.267Z,49.16
2022-12-26T23:13:10.252Z,49.11
2022-12-26T23:14:10.258Z,53.11
2022-12-26T23:15:10.193Z,49.68
2022-12-26T23:16:10.259Z,46.36
2022-12-26T23:17:10.143Z,50.29
2022-12-26T23:18:10.148Z,54.54
2022-12-26T23:19:10.098Z,54.85
2022-12-26T23:20:10.073Z,48.85
2022-12-26T23:21:10.050Z,50.53
2022-12-26T23:22:10.032Z,50.33
2022-12-26T23:23:10.012Z,44.97
2022-12-26T23:24:09.985Z,47.36
2022-12-26T23:25:09.963Z,45.69
2022-12-26T23:26:09.944Z,47.31
2022-12-26T23:27:12.000Z,49.80
2022-12-26T23:28:09.908Z,51.48
2022-12-26T23:29:09.882Z,48.79
2022-12-26T23:30:09.876Z,53.49
2022-12-26T23:31:09.865Z,50.11
2022-12-26T23:32:09.821Z,56.28
2022-12-26T23:33:09.801Z,46.34
2022-12-26T23:34:09.794Z,49.99
2022-12-26T23:35:09.758Z,49.41
2022-12-26T23:36:09.727Z,42.34
2022-12-26T23:37:09.712Z,46.50
2022-12-26T23:38:09.674Z,50.40
2022-12-26T23:39:09.653Z,49.55
2022-12-26T23:40:09.635Z,47.20
2022-12-26T23:41:09.603Z,51.76
2022-12-26T23:42:09.583Z,49.83
2022-12-26T23:43:09.560Z,55.22
2022-12-26T23:44:09.553Z,58.27
2022-12-26T23:45:09.526Z,53.72
2022-12-26T23:46:09.642Z,53.87
2022-12-26T23:47:09.481Z,53.50
2022-12-26T23:48:09.449Z,49.80
2022-12-26T23:49:09.429Z,51.22
2022-12-26T23:50:09.429Z,42.88
2022-12-26T23:51:09.381Z,39.37
2022-12-26T23:52:09.356Z,47.90
2022-12-26T23:53:09.351Z,45.84
2022-12-26T23:54:09.318Z,49.41
2022-12-26T23:55:09.298Z,54.02
2022-12-26T23:56:09.269Z,56.15
2022-12-26T23:57:09.243Z,51.68
2022-12-26T23:58:09.236Z,54.23
2022-12-26T23:59:09.236Z,57.57
